createdAt,value
2022-12-19T00:01:32.944Z,-6.02
2022-12-19T00:04:02.248Z,-6.05
2022-12-19T00:06:33.966Z,-6.08
2022-12-19T00:09:00.368Z,-6.11
2022-12-19T00:11:27.844Z,-6.13
2022-12-19T00:13:54.658Z,-6.12
2022-12-19T00:16:23.408Z,-6.12
2022-12-19T00:18:55.201Z,-6.19
2022-12-19T00:21:24.032Z,-6.19
2022-12-19T00:23:51.127Z,-6.12
2022-12-19T00:26:25.679Z,-6.01
2022-12-19T00:28:54.823Z,-5.98
2022-12-19T00:31:25.781Z,-6.04
2022-12-19T00:33:52.892Z,-6.07
2022-12-19T00:36:22.732Z,-6.06
2022-12-19T00:38:50.791Z,-6.04
2022-12-19T00:41:19.255Z,-6.08
2022-12-19T00:43:46.193Z,-6.11
2022-12-19T00:46:14.792Z,-6.11
2022-12-19T00:48:41.958Z,-6.12
2022-12-19T00:51:13.839Z,-6.15
2022-12-19T00:53:42.764Z,-6.10
2022-12-19T00:56:14.773Z,-6.02
2022-12-19T00:58:46.643Z,-6.02
2022-12-19T01:01:16.325Z,-5.96
2022-12-19T01:04:04.473Z,-5.98
2022-12-19T01:06:31.513Z,-6.05
2022-12-19T01:08:58.284Z,-6.11
2022-12-19T01:11:47.776Z,-6.13
2022-12-19T01:14:20.804Z,-6.14
2022-12-19T01:16:50.086Z,-6.13
2022-12-19T01:19:18.938Z,-6.12
2022-12-19T01:21:45.708Z,-6.06
2022-12-19T01:24:12.253Z,-6.04
2022-12-19T01:26:39.955Z,-6.05
2022-12-19T01:29:06.452Z,-6.04
2022-12-19T01:31:32.976Z,-6.04
2022-12-19T01:34:02.174Z,-6.15
2022-12-19T01:36:28.589Z,-6.19
2022-12-19T01:38:56.609Z,-6.19
2022-12-19T01:41:23.257Z,-6.20
2022-12-19T01:44:12.901Z,-6.23
2022-12-19T01:46:47.578Z,-6.22
2022-12-19T01:49:34.741Z,-6.20
2022-12-19T01:52:09.686Z,-6.17
2022-12-19T01:54:40.559Z,-6.18
2022-12-19T01:57:12.473Z,-6.11
2022-12-19T01:59:43.256Z,-6.04
2022-12-19T02:02:17.191Z,-5.99
2022-12-19T02:04:45.248Z,-5.96
2022-12-19T02:07:16.080Z,-5.96
2022-12-19T02:09:45.036Z,-5.97
2022-12-19T02:12:12.978Z,-5.96
2022-12-19T02:14:40.382Z,-5.94
2022-12-19T02:17:18.375Z,-5.96
2022-12-19T02:20:12.328Z,-6.05
2022-12-19T02:23:00.360Z,-6.09
2022-12-19T02:25:56.789Z,-6.13
2022-12-19T02:28:57.013Z,-6.13
2022-12-19T02:31:30.865Z,-6.14
2022-12-19T02:34:13.897Z,-6.15
2022-12-19T02:37:00.212Z,-6.20
2022-12-19T02:39:40.369Z,-6.22
2022-12-19T02:42:09.355Z,-6.20
2022-12-19T02:44:42.056Z,-6.17
2022-12-19T02:47:09.238Z,-6.12
2022-12-19T02:49:37.586Z,-6.09
2022-12-19T02:52:19.202Z,-6.10
2022-12-19T02:54:56.845Z,-6.10
2022-12-19T02:57:31.719Z,-6.07
2022-12-19T03:00:10.928Z,-6.04
2022-12-19T03:03:10.414Z,-6.11
2022-12-19T03:06:13.589Z,-6.17
2022-12-19T03:08:59.609Z,-6.25
2022-12-19T03:11:31.322Z,-6.28
2022-12-19T03:14:06.689Z,-6.26
2022-12-19T03:16:36.864Z,-6.23
2022-12-19T03:19:09.248Z,-6.17
2022-12-19T03:21:42.117Z,-6.13
2022-12-19T03:24:10.805Z,-6.07
2022-12-19T03:26:49.914Z,-6.08
2022-12-19T03:29:36.918Z,-6.10
2022-12-19T03:32:07.124Z,-6.07
2022-12-19T03:34:44.632Z,-6.08
2022-12-19T03:37:14.830Z,-6.11
2022-12-19T03:39:42.828Z,-6.12
2022-12-19T03:42:28.530Z,-6.11
2022-12-19T03:45:00.186Z,-6.13
2022-12-19T03:47:39.168Z,-6.15
2022-12-19T03:50:06.458Z,-6.17
2022-12-19T03:52:46.506Z,-6.13
2022-12-19T03:55:26.505Z,-6.13
2022-12-19T03:57:59.525Z,-6.10
2022-12-19T04:00:26.800Z,-6.04
2022-12-19T04:02:55.705Z,-5.96
2022-12-19T04:05:24.704Z,-5.87
2022-12-19T04:07:54.262Z,-5.81
2022-12-19T04:10:23.133Z,-5.74
2022-12-19T04:13:13.084Z,-5.70
2022-12-19T04:15:48.297Z,-5.73
2022-12-19T04:18:15.400Z,-5.77
2022-12-19T04:20:45.245Z,-5.77
2022-12-19T04:23:18.221Z,-5.75
2022-12-19T04:25:50.748Z,-5.72
2022-12-19T04:28:25.877Z,-5.67
2022-12-19T04:30:53.407Z,-5.65
2022-12-19T04:33:19.847Z,-5.60
2022-12-19T04:35:46.266Z,-5.59
2022-12-19T04:38:12.786Z,-5.64
2022-12-19T04:40:41.463Z,-5.63
2022-12-19T04:43:08.561Z,-5.60
2022-12-19T04:45:35.093Z,-5.56
2022-12-19T04:48:03.230Z,-5.56
2022-12-19T04:50:29.633Z,-5.53
2022-12-19T04:52:57.420Z,-5.48
2022-12-19T04:55:23.759Z,-5.43
2022-12-19T04:57:50.232Z,-5.39
2022-12-19T05:00:16.965Z,-5.34
2022-12-19T05:02:43.909Z,-5.32
2022-12-19T05:05:10.517Z,-5.32
2022-12-19T05:07:36.865Z,-5.35
2022-12-19T05:10:04.047Z,-5.34
2022-12-19T05:12:30.548Z,-5.31
2022-12-19T05:14:57.068Z,-5.28
2022-12-19T05:17:23.631Z,-5.26
2022-12-19T05:19:50.107Z,-5.26
2022-12-19T05:22:16.683Z,-5.29
2022-12-19T05:24:43.103Z,-5.34
2022-12-19T05:27:09.577Z,-5.36
2022-12-19T05:29:35.947Z,-5.36
2022-12-19T05:32:02.274Z,-5.37
2022-12-19T05:34:28.796Z,-5.37
2022-12-19T05:36:55.398Z,-5.38
2022-12-19T05:39:21.823Z,-5.36
2022-12-19T05:41:49.307Z,-5.36
2022-12-19T05:44:16.150Z,-5.40
2022-12-19T05:46:42.595Z,-5.42
2022-12-19T05:49:09.030Z,-5.45
2022-12-19T05:51:35.587Z,-5.47
2022-12-19T05:54:02.343Z,-5.49
2022-12-19T05:56:28.679Z,-5.45
2022-12-19T05:58:55.290Z,-5.41
2022-12-19T06:01:24.328Z,-5.38
2022-12-19T06:03:51.369Z,-5.35
2022-12-19T06:06:20.074Z,-5.35
2022-12-19T06:08:47.011Z,-5.32
2022-12-19T06:11:14.049Z,-5.29
2022-12-19T06:13:41.069Z,-5.26
2022-12-19T06:16:12.164Z,-5.29
2022-12-19T06:18:44.260Z,-5.31
2022-12-19T06:21:16.250Z,-5.35
2022-12-19T06:23:43.121Z,-5.38
2022-12-19T06:26:18.316Z,-5.36
2022-12-19T06:28:45.893Z,-5.34
2022-12-19T06:31:12.774Z,-5.33
2022-12-19T06:33:39.423Z,-5.34
2022-12-19T06:36:27.031Z,-5.33
2022-12-19T06:38:55.269Z,-5.32
2022-12-19T06:41:40.528Z,-5.35
2022-12-19T06:44:09.901Z,-5.35
2022-12-19T06:46:38.350Z,-5.28
2022-12-19T06:49:05.179Z,-5.23
2022-12-19T06:51:32.057Z,-5.19
2022-12-19T06:53:58.715Z,-5.16
2022-12-19T06:56:25.599Z,-5.09
2022-12-19T06:58:52.125Z,-5.04
2022-12-19T07:01:21.324Z,-5.00
2022-12-19T07:03:48.381Z,-4.92
2022-12-19T07:06:14.852Z,-4.86
2022-12-19T07:08:41.489Z,-4.83
2022-12-19T07:11:07.997Z,-4.78
2022-12-19T07:13:34.457Z,-4.70
2022-12-19T07:16:02.632Z,-4.63
2022-12-19T07:18:30.801Z,-4.61
2022-12-19T07:20:57.484Z,-4.59
2022-12-19T07:23:23.891Z,-4.54
2022-12-19T07:25:50.260Z,-4.48
2022-12-19T07:28:16.729Z,-4.47
2022-12-19T07:30:43.075Z,-4.42
2022-12-19T07:33:11.257Z,-4.38
2022-12-19T07:35:39.254Z,-4.31
2022-12-19T07:38:07.695Z,-4.26
2022-12-19T07:40:35.076Z,-4.18
2022-12-19T07:43:02.521Z,-4.10
2022-12-19T07:45:29.601Z,-4.05
2022-12-19T07:48:00.513Z,-3.96
2022-12-19T07:50:27.516Z,-3.86
2022-12-19T07:52:54.471Z,-3.76
2022-12-19T07:55:20.898Z,-3.61
2022-12-19T07:57:47.373Z,-3.42
2022-12-19T08:00:14.709Z,-3.17
2022-12-19T08:02:41.331Z,-2.99
2022-12-19T08:05:08.795Z,-2.82
2022-12-19T08:07:35.141Z,-2.59
2022-12-19T08:10:01.524Z,-2.34
2022-12-19T08:12:28.142Z,-2.15
2022-12-19T08:14:57.338Z,-1.99
2022-12-19T08:17:24.076Z,-1.84
2022-12-19T08:19:50.604Z,-1.70
2022-12-19T08:22:17.117Z,-1.56
2022-12-19T08:24:43.675Z,-1.48
2022-12-19T08:27:10.195Z,-1.42
2022-12-19T08:29:36.538Z,-1.41
2022-12-19T08:32:03.001Z,-1.40
2022-12-19T08:34:29.411Z,-1.32
2022-12-19T08:36:56.343Z,-1.27
2022-12-19T08:39:22.683Z,-1.32
2022-12-19T08:41:49.192Z,-1.31
2022-12-19T08:44:15.710Z,-1.26
2022-12-19T08:46:48.080Z,-1.20
2022-12-19T08:49:16.424Z,-1.09
2022-12-19T08:51:43.050Z,-0.98
2022-12-19T08:54:11.741Z,-0.79
2022-12-19T08:56:38.775Z,-0.50
2022-12-19T08:59:21.241Z,-0.35
2022-12-19T09:01:58.570Z,-0.21
2022-12-19T09:05:34.321Z,-0.14
2022-12-19T09:07:15.749Z,-0.03
2022-12-19T09:09:48.107Z,0.11
2022-12-19T09:12:16.192Z,0.33
2022-12-19T09:14:43.591Z,0.50
2022-12-19T09:17:10.127Z,0.59
2022-12-19T09:19:36.724Z,0.63
2022-12-19T09:22:03.873Z,0.86
2022-12-19T09:24:30.239Z,1.14
2022-12-19T09:26:56.643Z,1.45
2022-12-19T09:29:24.132Z,1.72
2022-12-19T09:31:55.622Z,1.97
2022-12-19T09:34:37.402Z,2.21
2022-12-19T09:37:06.824Z,2.53
2022-12-19T09:39:34.386Z,2.81
2022-12-19T09:42:20.677Z,3.06
2022-12-19T09:45:11.211Z,3.24
2022-12-19T09:47:43.316Z,3.43
2022-12-19T09:50:29.041Z,3.53
2022-12-19T09:53:12.522Z,3.76
2022-12-19T09:55:40.901Z,3.93
2022-12-19T09:58:24.023Z,4.19
2022-12-19T10:00:59.939Z,4.24
2022-12-19T10:03:40.876Z,4.29
2022-12-19T10:07:13.392Z,4.43
2022-12-19T10:10:40.103Z,4.64
2022-12-19T10:12:45.273Z,4.72
2022-12-19T10:15:25.293Z,4.70
2022-12-19T10:18:08.421Z,4.76
2022-12-19T10:20:41.209Z,4.87
2022-12-19T10:23:55.994Z,4.96
2022-12-19T10:26:29.830Z,5.15
2022-12-19T10:29:25.191Z,5.22
2022-12-19T10:32:03.605Z,5.31
2022-12-19T10:34:41.073Z,5.42
2022-12-19T10:37:29.085Z,5.52
2022-12-19T10:40:27.744Z,5.52
2022-12-19T10:42:59.436Z,5.52
2022-12-19T10:45:48.916Z,5.62
2022-12-19T10:48:18.303Z,5.86
2022-12-19T10:50:46.633Z,6.04
2022-12-19T10:53:13.920Z,6.27
2022-12-19T10:55:43.779Z,6.42
2022-12-19T10:58:24.792Z,6.39
2022-12-19T11:01:04.543Z,6.33
2022-12-19T11:03:34.792Z,6.31
2022-12-19T11:06:02.781Z,6.41
2022-12-19T11:08:34.544Z,6.44
2022-12-19T11:12:28.998Z,6.39
2022-12-19T11:19:33.471Z,6.46
2022-12-19T11:21:47.738Z,6.57
2022-12-19T11:29:26.509Z,6.83
2022-12-19T11:29:33.928Z,6.78
2022-12-19T11:30:37.983Z,6.67
2022-12-19T11:30:47.108Z,6.78
2022-12-19T11:34:02.564Z,6.74
2022-12-19T11:36:47.135Z,6.82
2022-12-19T11:39:31.587Z,6.86
2022-12-19T11:42:23.963Z,6.89
2022-12-19T11:44:58.446Z,6.96
2022-12-19T11:47:44.530Z,6.95
2022-12-19T11:50:16.263Z,6.95
2022-12-19T11:53:05.119Z,6.96
2022-12-19T12:35:34.425Z,8.04
2022-12-19T12:58:55.482Z,7.85
2022-12-19T13:01:41.854Z,7.49
2022-12-19T13:04:36.098Z,7.16
2022-12-19T13:09:06.987Z,6.68
2022-12-19T13:12:46.846Z,6.30
2022-12-19T13:15:39.883Z,6.02
2022-12-19T13:18:35.817Z,5.72
2022-12-19T13:21:09.706Z,5.58
2022-12-19T13:26:50.206Z,5.52
2022-12-19T13:29:30.473Z,5.48
2022-12-19T13:35:32.592Z,5.27
2022-12-19T13:39:54.908Z,5.05
2022-12-19T13:41:47.908Z,4.85
2022-12-19T13:44:22.141Z,4.61
2022-12-19T13:46:51.434Z,4.52
2022-12-19T13:49:50.052Z,4.48
2022-12-19T13:52:28.221Z,4.39
2022-12-19T13:55:15.641Z,4.26
2022-12-19T13:57:52.859Z,4.15
2022-12-19T14:00:53.556Z,3.99
2022-12-19T14:03:53.152Z,3.87
2022-12-19T14:06:26.408Z,3.77
2022-12-19T14:11:24.294Z,3.71
2022-12-19T14:13:45.276Z,3.58
2022-12-19T14:15:25.523Z,3.49
2022-12-19T14:17:53.824Z,3.40
2022-12-19T14:22:03.527Z,3.36
2022-12-19T14:23:13.492Z,3.23
2022-12-19T14:28:17.824Z,3.13
2022-12-19T14:28:48.984Z,3.09
2022-12-19T14:31:22.808Z,3.04
2022-12-19T14:34:19.124Z,2.93
2022-12-19T14:37:54.335Z,2.73
2022-12-19T14:40:23.191Z,2.59
2022-12-19T14:43:59.928Z,2.51
2022-12-19T14:54:00.767Z,2.33
2022-12-19T14:54:07.010Z,2.24
2022-12-19T14:54:23.584Z,2.16
2022-12-19T14:56:15.900Z,1.99
2022-12-19T14:58:52.325Z,1.93
2022-12-19T15:01:28.792Z,1.94
2022-12-19T15:04:52.515Z,1.94
2022-12-19T15:07:06.728Z,1.99
2022-12-19T15:10:59.501Z,2.00
2022-12-19T15:14:46.785Z,2.00
2022-12-19T15:16:42.627Z,2.07
2022-12-19T15:19:13.878Z,2.10
2022-12-19T15:21:42.834Z,2.07
2022-12-19T15:24:14.106Z,2.04
2022-12-19T15:26:54.463Z,1.97
2022-12-19T15:29:24.507Z,1.94
2022-12-19T15:31:57.629Z,1.94
2022-12-19T15:34:44.392Z,1.87
2022-12-19T15:37:18.076Z,1.81
2022-12-19T15:39:46.663Z,1.76
2022-12-19T15:42:24.666Z,1.75
2022-12-19T15:44:57.534Z,1.76
2022-12-19T15:54:08.962Z,1.77
2022-12-19T15:56:47.638Z,1.74
2022-12-19T15:59:32.986Z,1.74
2022-12-19T16:02:13.884Z,1.72
2022-12-19T16:04:41.916Z,1.72
2022-12-19T16:07:30.330Z,1.72
2022-12-19T16:09:58.102Z,1.72
2022-12-19T16:12:37.222Z,1.72
2022-12-19T16:15:07.288Z,1.71
2022-12-19T16:17:34.995Z,1.72
2022-12-19T16:20:02.792Z,1.77
2022-12-19T16:22:30.615Z,1.75
2022-12-19T16:24:58.319Z,1.75
2022-12-19T16:27:30.708Z,1.77
2022-12-19T16:30:16.609Z,1.79
2022-12-19T16:32:47.228Z,1.74
2022-12-19T16:35:34.236Z,1.72
2022-12-19T16:38:05.381Z,1.72
2022-12-19T16:40:33.189Z,1.73
2022-12-19T16:43:31.446Z,1.74
2022-12-19T16:46:01.416Z,1.77
2022-12-19T16:48:30.362Z,1.76
2022-12-19T16:50:59.292Z,1.73
2022-12-19T16:53:27.147Z,1.72
2022-12-19T16:55:56.800Z,1.74
2022-12-19T16:58:26.602Z,1.75
2022-12-19T17:00:55.507Z,1.76
2022-12-19T17:03:41.594Z,1.74
2022-12-19T17:06:14.997Z,1.74
2022-12-19T17:08:43.040Z,1.78
2022-12-19T17:11:31.092Z,1.80
2022-12-19T17:14:10.183Z,1.82
2022-12-19T17:16:38.323Z,1.77
2022-12-19T17:19:06.122Z,1.74
2022-12-19T17:21:33.901Z,1.69
2022-12-19T17:24:01.636Z,1.65
2022-12-19T17:26:29.370Z,1.63
2022-12-19T17:28:57.087Z,1.63
2022-12-19T17:31:28.739Z,1.63
2022-12-19T17:33:58.095Z,1.64
2022-12-19T17:36:32.778Z,1.65
2022-12-19T17:39:02.869Z,1.66
2022-12-19T17:41:30.704Z,1.65
2022-12-19T17:43:58.473Z,1.70
2022-12-19T17:46:36.644Z,1.74
2022-12-19T17:49:05.241Z,1.74
2022-12-19T17:51:33.035Z,1.79
2022-12-19T17:54:00.805Z,1.78
2022-12-19T17:56:29.570Z,1.74
2022-12-19T17:58:57.476Z,1.74
2022-12-19T18:01:25.529Z,1.75
2022-12-19T18:03:54.269Z,1.73
2022-12-19T18:06:22.251Z,1.75
2022-12-19T18:08:50.012Z,1.77
2022-12-19T18:11:25.919Z,1.79
2022-12-19T18:13:53.781Z,1.79
2022-12-19T18:16:28.141Z,1.81
2022-12-19T18:18:56.920Z,1.82
2022-12-19T18:21:24.819Z,1.84
2022-12-19T18:23:52.745Z,1.82
2022-12-19T18:26:20.565Z,1.78
2022-12-19T18:28:48.868Z,1.75
2022-12-19T18:31:26.535Z,1.70
2022-12-19T18:33:55.170Z,1.64
2022-12-19T18:36:26.355Z,1.67
2022-12-19T18:38:55.598Z,1.75
2022-12-19T18:41:23.825Z,1.82
2022-12-19T18:43:51.718Z,1.93
2022-12-19T18:46:26.561Z,2.02
2022-12-19T18:48:55.527Z,2.06
2022-12-19T18:51:23.646Z,2.09
2022-12-19T18:53:51.713Z,2.07
2022-12-19T18:56:19.807Z,2.08
2022-12-19T18:58:48.566Z,2.03
2022-12-19T19:01:18.474Z,2.03
2022-12-19T19:03:57.363Z,2.04
2022-12-19T19:06:27.790Z,2.01
2022-12-19T19:09:00.319Z,1.99
2022-12-19T19:11:54.201Z,2.00
2022-12-19T19:14:22.376Z,2.03
2022-12-19T19:16:50.187Z,2.07
2022-12-19T19:19:18.705Z,2.09
2022-12-19T19:21:46.575Z,2.11
2022-12-19T19:24:17.523Z,2.11
2022-12-19T19:26:45.297Z,2.12
2022-12-19T19:29:19.179Z,2.11
2022-12-19T19:31:48.925Z,2.10
2022-12-19T19:34:28.764Z,2.13
2022-12-19T19:36:58.451Z,2.13
2022-12-19T19:39:27.804Z,2.11
2022-12-19T19:41:56.385Z,2.09
2022-12-19T19:44:24.523Z,2.07
2022-12-19T19:46:52.546Z,2.06
2022-12-19T19:49:21.234Z,2.06
2022-12-19T19:51:48.969Z,2.05
2022-12-19T19:54:16.975Z,2.06
2022-12-19T19:56:44.729Z,2.09
2022-12-19T19:59:12.514Z,2.12
2022-12-19T20:01:40.365Z,2.12
2022-12-19T20:04:08.443Z,2.13
2022-12-19T20:06:36.271Z,2.17
2022-12-19T20:09:04.552Z,2.20
2022-12-19T20:11:32.584Z,2.23
2022-12-19T20:14:00.373Z,2.23
2022-12-19T20:16:30.283Z,2.19
2022-12-19T20:18:58.149Z,2.16
2022-12-19T20:21:25.980Z,2.18
2022-12-19T20:23:53.790Z,2.23
2022-12-19T20:26:21.536Z,2.22
2022-12-19T20:28:50.616Z,2.18
2022-12-19T20:31:20.349Z,2.14
2022-12-19T20:33:48.901Z,2.08
2022-12-19T20:36:17.131Z,2.05
2022-12-19T20:38:45.373Z,2.04
2022-12-19T20:41:13.601Z,2.08
2022-12-19T20:43:41.559Z,2.12
2022-12-19T20:46:13.264Z,2.17
2022-12-19T20:48:42.046Z,2.19
2022-12-19T20:51:10.186Z,2.19
2022-12-19T20:53:39.494Z,2.21
2022-12-19T20:56:09.257Z,2.22
2022-12-19T20:58:37.843Z,2.20
2022-12-19T21:01:11.119Z,2.22
2022-12-19T21:03:40.048Z,2.23
2022-12-19T21:06:10.336Z,2.23
2022-12-19T21:08:38.798Z,2.29
2022-12-19T21:11:08.436Z,2.35
2022-12-19T21:13:38.032Z,2.37
2022-12-19T21:16:08.891Z,2.42
2022-12-19T21:18:38.550Z,2.45
2022-12-19T21:21:08.135Z,2.50
2022-12-19T21:23:36.008Z,2.53
2022-12-19T21:26:04.667Z,2.51
2022-12-19T21:28:32.857Z,2.49
2022-12-19T21:31:20.276Z,2.47
2022-12-19T21:33:48.907Z,2.46
2022-12-19T21:36:19.982Z,2.50
2022-12-19T21:38:49.964Z,2.49
2022-12-19T21:41:21.413Z,2.44
2022-12-19T21:43:53.370Z,2.40
2022-12-19T21:46:27.084Z,2.36
2022-12-19T21:48:56.733Z,2.37
2022-12-19T21:51:28.556Z,2.43
2022-12-19T21:54:00.418Z,2.46
2022-12-19T21:56:34.451Z,2.49
2022-12-19T21:59:06.108Z,2.51
2022-12-19T22:01:34.309Z,2.56
2022-12-19T22:04:06.360Z,2.57
2022-12-19T22:06:37.184Z,2.56
2022-12-19T22:09:07.295Z,2.59
2022-12-19T22:11:36.047Z,2.56
2022-12-19T22:14:05.454Z,2.53
2022-12-19T22:16:34.198Z,2.53
2022-12-19T22:19:02.526Z,2.55
2022-12-19T22:21:31.047Z,2.60
2022-12-19T22:24:00.293Z,2.62
2022-12-19T22:26:29.904Z,2.61
2022-12-19T22:28:57.997Z,2.60
2022-12-19T22:31:27.993Z,2.58
2022-12-19T22:33:58.937Z,2.55
2022-12-19T22:36:29.145Z,2.57
2022-12-19T22:38:57.929Z,2.55
2022-12-19T22:41:26.486Z,2.57
2022-12-19T22:43:55.158Z,2.54
2022-12-19T22:46:28.257Z,2.53
2022-12-19T22:49:01.476Z,2.54
2022-12-19T22:51:30.443Z,2.56
2022-12-19T22:53:59.447Z,2.54
2022-12-19T22:56:28.875Z,2.53
2022-12-19T22:59:00.185Z,2.50
2022-12-19T23:01:31.112Z,2.48
2022-12-19T23:04:00.401Z,2.45
2022-12-19T23:06:29.576Z,2.43
2022-12-19T23:08:57.819Z,2.42
2022-12-19T23:11:28.895Z,2.42
2022-12-19T23:13:56.680Z,2.42
2022-12-19T23:16:24.854Z,2.44
2022-12-19T23:18:52.745Z,2.47
2022-12-19T23:21:22.705Z,2.52
2022-12-19T23:23:52.314Z,2.52
2022-12-19T23:26:27.866Z,2.51
2022-12-19T23:28:58.114Z,2.53
2022-12-19T23:31:27.265Z,2.53
2022-12-19T23:33:55.791Z,2.56
2022-12-19T23:37:00.413Z,2.59
2022-12-19T23:39:13.061Z,2.58
2022-12-19T23:41:40.938Z,2.60
2022-12-19T23:44:10.095Z,2.56
2022-12-19T23:46:38.177Z,2.49
2022-12-19T23:49:06.414Z,2.46
2022-12-19T23:51:34.103Z,2.44
2022-12-19T23:54:01.850Z,2.45
2022-12-19T23:56:31.483Z,2.48
2022-12-19T23:58:59.569Z,2.49
